Time;durP1;ratioP1;P1;durP2;ratioP2;P2;SDS_P1;SDS_P2;PMS_P1;PMS_P2;Temp;Humidity;BMP_temperature;BMP_pressure;BME280_temperature;BME280_humidity;BME280_pressure;Samples;Min_cycle;Max_cycle;Signal;HPM_P1;HPM_P2
2022/03/01 00:00:39;;;;;;;15.68;8.02;;;1.10;99.90;;;;;;5037001;28;20510;-87
2022/03/01 00:03:06;;;;;;;19.90;9.95;;;0.90;99.90;;;;;;5038244;28;20120;-87
2022/03/01 00:05:32;;;;;;;17.38;9.82;;;0.90;99.90;;;;;;5038368;28;20444;-87
2022/03/01 00:07:57;;;;;;;17.15;9.05;;;0.80;99.90;;;;;;5037265;28;20053;-87
2022/03/01 00:10:23;;;;;;;19.15;9.52;;;0.80;99.90;;;;;;5038781;28;20049;-87
2022/03/01 00:12:49;;;;;;;16.70;9.02;;;0.90;99.90;;;;;;5038398;28;20052;-88
2022/03/01 00:15:14;;;;;;;24.13;9.15;;;0.80;99.90;;;;;;5037435;28;20046;-87
2022/03/01 00:17:40;;;;;;;18.63;8.93;;;0.90;99.90;;;;;;5038432;28;20188;-87
2022/03/01 00:20:06;;;;;;;21.70;10.05;;;0.90;99.90;;;;;;5037653;28;20044;-87
2022/03/01 00:22:32;;;;;;;18.17;8.85;;;0.80;99.90;;;;;;5028746;28;20037;-88
2022/03/01 00:24:57;;;;;;;18.45;9.25;;;0.60;99.90;;;;;;5037049;28;20091;-88
2022/03/01 00:27:23;;;;;;;19.42;8.38;;;0.50;99.90;;;;;;5037742;28;20081;-88
2022/03/01 00:29:48;;;;;;;16.45;8.32;;;0.40;99.90;;;;;;5038014;28;20040;-87
2022/03/01 00:32:14;;;;;;;15.60;8.70;;;0.50;99.90;;;;;;5036490;28;20126;-88
2022/03/01 00:34:40;;;;;;;22.40;9.98;;;0.60;99.90;;;;;;5038118;28;20038;-88
2022/03/01 00:37:05;;;;;;;18.33;8.18;;;0.70;99.90;;;;;;5037287;28;20530;-88
2022/03/01 00:39:31;;;;;;;15.13;7.28;;;0.80;99.90;;;;;;5036994;28;20388;-88
2022/03/01 00:41:56;;;;;;;14.45;7.97;;;0.90;99.90;;;;;;5037778;28;20045;-88
2022/03/01 00:44:22;;;;;;;18.05;7.88;;;1.10;99.90;;;;;;5038127;28;20049;-88
2022/03/01 00:46:47;;;;;;;16.40;7.40;;;1.10;99.90;;;;;;5036907;28;20511;-88
2022/03/01 00:49:13;;;;;;;15.45;6.90;;;1.20;99.90;;;;;;5037509;28;20064;-88
2022/03/01 00:51:39;;;;;;;18.25;9.00;;;1.30;99.90;;;;;;5036884;28;20044;-88
2022/03/01 00:54:05;;;;;;;17.58;8.25;;;1.40;99.90;;;;;;5038577;28;20041;-87
2022/03/01 00:56:31;;;;;;;16.02;8.00;;;1.60;99.90;;;;;;5037914;28;20048;-87
2022/03/01 00:58:57;;;;;;;18.42;8.65;;;1.60;99.90;;;;;;5037728;28;20037;-87
2022/03/01 01:01:23;;;;;;;13.93;7.78;;;1.70;99.90;;;;;;5038417;28;20557;-87
2022/03/01 01:03:48;;;;;;;15.85;7.30;;;1.80;99.90;;;;;;5036675;28;20090;-88
2022/03/01 01:06:14;;;;;;;15.43;6.88;;;1.90;99.90;;;;;;5038089;28;20046;-87
2022/03/01 01:08:40;;;;;;;13.05;7.38;;;1.90;99.90;;;;;;5038223;28;20045;-88
2022/03/01 01:11:06;;;;;;;20.48;8.52;;;2.00;99.90;;;;;;5037787;28;20041;-88
2022/03/01 01:13:32;;;;;;;15.10;7.32;;;1.80;99.90;;;;;;5038579;28;20056;-87
2022/03/01 01:15:57;;;;;;;14.63;7.43;;;1.90;99.90;;;;;;5036852;28;20455;-87
2022/03/01 01:18:23;;;;;;;16.35;7.78;;;1.80;99.90;;;;;;5037233;28;20125;-88
2022/03/01 01:20:49;;;;;;;13.38;7.90;;;1.70;99.90;;;;;;5036136;28;20129;-88
2022/03/01 01:23:14;;;;;;;16.80;8.15;;;1.70;99.90;;;;;;5037524;28;20046;-88
2022/03/01 01:25:40;;;;;;;15.20;8.45;;;1.70;99.90;;;;;;5036688;28;20037;-87
2022/03/01 01:28:09;;;;;;;16.05;8.80;;;1.70;99.90;;;;;;5035248;28;20045;-88
2022/03/01 01:30:38;;;;;;;16.63;8.82;;;1.70;99.90;;;;;;5037254;28;20663;-87
2022/03/01 01:33:03;;;;;;;20.85;10.20;;;1.70;99.90;;;;;;5036631;28;20048;-87
2022/03/01 01:35:31;;;;;;;20.83;8.32;;;1.70;99.90;;;;;;5036043;28;20400;-88
2022/03/01 01:37:57;;;;;;;14.25;7.35;;;1.60;99.90;;;;;;5037071;28;20508;-88
2022/03/01 01:40:25;;;;;;;15.85;7.13;;;1.60;99.90;;;;;;5037236;28;20084;-86
2022/03/01 01:42:51;;;;;;;23.38;9.00;;;1.60;99.90;;;;;;5036632;28;20098;-88
2022/03/01 01:45:17;;;;;;;15.70;8.02;;;1.70;99.90;;;;;;5038196;28;20123;-87
2022/03/01 01:47:43;;;;;;;17.65;7.82;;;1.70;99.90;;;;;;5036984;28;20065;-87
2022/03/01 01:50:09;;;;;;;13.68;7.72;;;1.70;99.90;;;;;;5037125;28;20042;-88
2022/03/01 01:52:35;;;;;;;15.23;7.60;;;1.60;99.90;;;;;;5036624;28;20041;-88
2022/03/01 01:55:01;;;;;;;15.68;8.13;;;1.60;99.90;;;;;;5036787;28;20037;-87
2022/03/01 01:57:27;;;;;;;16.60;8.00;;;1.50;99.90;;;;;;5036002;28;20077;-87
2022/03/01 01:59:55;;;;;;;15.18;7.80;;;1.40;99.90;;;;;;5035758;28;20491;-87
2022/03/01 02:02:22;;;;;;;23.20;9.05;;;1.40;99.90;;;;;;5041687;28;20056;-87
2022/03/01 02:04:48;;;;;;;14.82;7.97;;;1.40;99.90;;;;;;5049580;28;20060;-87
2022/03/01 02:07:15;;;;;;;15.07;7.88;;;1.50;99.90;;;;;;5048858;28;20037;-87
2022/03/01 02:09:41;;;;;;;16.33;8.65;;;1.50;99.90;;;;;;5048189;28;20048;-86
2022/03/01 02:12:07;;;;;;;17.45;7.45;;;1.40;99.90;;;;;;5038129;28;20462;-87
2022/03/01 02:14:35;;;;;;;15.60;8.32;;;1.40;99.90;;;;;;5035893;28;20411;-87
2022/03/01 02:17:03;;;;;;;13.57;7.35;;;2.00;99.90;;;;;;5034993;28;20476;-88
2022/03/01 02:19:30;;;;;;;19.60;9.77;;;1.30;99.90;;;;;;5035732;28;20041;-87
2022/03/01 02:21:56;;;;;;;20.10;8.45;;;1.20;99.90;;;;;;5035352;28;20045;-87
2022/03/01 02:24:24;;;;;;;16.98;9.40;;;1.20;99.90;;;;;;5035763;28;20116;-87
2022/03/01 02:26:53;;;;;;;18.10;8.75;;;1.20;99.90;;;;;;5034021;28;20045;-88
2022/03/01 02:29:18;;;;;;;17.48;9.10;;;1.30;99.90;;;;;;5034515;28;20045;-87
2022/03/01 02:31:44;;;;;;;15.35;8.20;;;1.20;99.90;;;;;;5035120;28;20038;-87
2022/03/01 02:34:09;;;;;;;15.40;8.77;;;1.20;99.90;;;;;;5035419;28;20052;-87
2022/03/01 02:36:35;;;;;;;18.25;9.88;;;1.10;99.90;;;;;;5033385;28;20079;-87
2022/03/01 02:39:01;;;;;;;21.75;9.57;;;1.00;99.90;;;;;;5034621;28;20454;-88
2022/03/01 02:41:26;;;;;;;16.58;9.40;;;1.00;99.90;;;;;;5033888;28;20061;-87
2022/03/01 02:43:52;;;;;;;18.73;8.80;;;1.10;99.90;;;;;;5033277;28;20091;-88
2022/03/01 02:46:18;;;;;;;17.30;9.35;;;1.10;99.90;;;;;;5035357;28;20124;-88
2022/03/01 02:48:43;;;;;;;16.05;9.07;;;1.00;99.90;;;;;;5035099;28;20124;-87
2022/03/01 02:51:09;;;;;;;18.52;8.60;;;0.90;99.90;;;;;;5033634;28;20480;-87
2022/03/01 02:53:36;;;;;;;17.15;9.27;;;0.90;99.90;;;;;;5034947;28;20044;-87
2022/03/01 02:56:04;;;;;;;16.40;9.32;;;0.80;99.90;;;;;;5035127;28;20120;-87
2022/03/01 02:58:30;;;;;;;16.75;9.55;;;0.70;99.90;;;;;;5035095;28;20048;-87
2022/03/01 03:00:56;;;;;;;18.33;8.68;;;0.70;99.90;;;;;;5033484;28;20049;-87
2022/03/01 03:03:21;;;;;;;19.77;9.57;;;0.60;99.90;;;;;;5017214;28;20060;-88
2022/03/01 03:05:47;;;;;;;16.58;9.13;;;0.40;99.90;;;;;;5034823;28;20116;-87
2022/03/01 03:08:13;;;;;;;18.38;9.55;;;0.50;99.90;;;;;;5034884;28;20463;-87
2022/03/01 03:10:39;;;;;;;18.63;9.02;;;0.40;99.90;;;;;;5034847;28;20048;-87
2022/03/01 03:13:05;;;;;;;18.98;9.65;;;0.30;99.90;;;;;;5034419;28;20076;-87
2022/03/01 03:15:31;;;;;;;18.67;9.65;;;0.90;99.90;;;;;;5034538;28;20080;-87
2022/03/01 03:17:57;;;;;;;17.35;9.50;;;0.30;99.90;;;;;;5034902;28;20041;-88
2022/03/01 03:20:24;;;;;;;19.55;10.07;;;0.30;99.90;;;;;;5034921;28;20060;-87
2022/03/01 03:22:50;;;;;;;20.65;9.25;;;0.30;99.90;;;;;;5035462;28;20523;-87
2022/03/01 03:25:15;;;;;;;17.60;9.82;;;0.20;99.90;;;;;;5038648;28;20050;-87
2022/03/01 03:27:41;;;;;;;17.65;9.55;;;0.30;99.90;;;;;;5036596;28;20049;-87
2022/03/01 03:30:08;;;;;;;22.83;9.02;;;0.30;99.90;;;;;;5039193;28;20526;-87
2022/03/01 03:32:34;;;;;;;15.80;8.80;;;0.30;99.90;;;;;;5021199;28;20045;-87
2022/03/01 03:35:00;;;;;;;19.10;9.32;;;0.30;99.90;;;;;;5037630;28;20028;-87
2022/03/01 03:37:26;;;;;;;18.23;9.02;;;0.20;99.90;;;;;;5038549;28;20131;-88
2022/03/01 03:39:52;;;;;;;17.15;8.73;;;0.30;99.90;;;;;;5038347;28;20128;-87
2022/03/01 03:42:18;;;;;;;20.25;9.95;;;0.50;99.90;;;;;;5038447;28;20124;-87
2022/03/01 03:44:44;;;;;;;22.90;8.45;;;0.70;99.90;;;;;;5038671;28;20077;-87
2022/03/01 03:47:09;;;;;;;20.15;8.88;;;0.80;99.90;;;;;;5038428;28;20056;-87
2022/03/01 03:49:37;;;;;;;18.92;8.68;;;1.00;99.90;;;;;;5038911;28;20373;-87
2022/03/01 03:52:04;;;;;;;17.45;9.70;;;1.60;99.90;;;;;;5036997;28;20045;-87
2022/03/01 03:54:30;;;;;;;19.85;10.05;;;1.00;99.90;;;;;;5036842;28;20073;-87
2022/03/01 03:56:56;;;;;;;21.08;9.38;;;1.00;99.90;;;;;;5038035;28;20037;-87
2022/03/01 03:59:22;;;;;;;18.20;9.27;;;1.10;99.90;;;;;;5038289;28;20063;-87
2022/03/01 04:01:48;;;;;;;21.02;9.43;;;1.00;99.90;;;;;;5036854;28;20128;-87
2022/03/01 04:04:13;;;;;;;20.50;10.68;;;1.10;99.90;;;;;;5038390;28;20042;-88
2022/03/01 04:06:39;;;;;;;21.38;9.23;;;1.10;99.90;;;;;;5038052;28;20041;-87
2022/03/01 04:09:05;;;;;;;20.38;9.35;;;1.10;99.90;;;;;;5037185;28;20400;-88
2022/03/01 04:11:31;;;;;;;19.95;10.30;;;1.10;99.90;;;;;;5039323;28;20072;-88
2022/03/01 04:13:57;;;;;;;19.42;8.93;;;1.10;99.90;;;;;;5041474;28;20130;-87
2022/03/01 04:16:23;;;;;;;21.67;10.07;;;1.10;99.90;;;;;;5038127;28;20049;-87
2022/03/01 04:18:49;;;;;;;24.25;12.80;;;1.20;99.90;;;;;;5038229;28;20050;-87
2022/03/01 04:21:15;;;;;;;23.02;10.18;;;1.20;99.90;;;;;;5036692;28;20514;-87
2022/03/01 04:23:40;;;;;;;17.48;9.15;;;1.30;99.90;;;;;;5038529;28;20049;-87
2022/03/01 04:26:06;;;;;;;22.50;10.98;;;1.30;99.90;;;;;;5039009;28;20080;-88
2022/03/01 04:28:32;;;;;;;25.55;9.43;;;1.30;99.90;;;;;;5040528;28;20041;-89
2022/03/01 04:30:57;;;;;;;22.00;10.23;;;1.30;99.90;;;;;;5039214;28;20096;-88
2022/03/01 04:33:23;;;;;;;19.10;10.07;;;1.40;99.90;;;;;;5038742;28;20128;-88
2022/03/01 04:35:49;;;;;;;15.63;9.40;;;1.40;99.90;;;;;;5037296;28;20053;-89
2022/03/01 04:38:15;;;;;;;22.92;10.88;;;1.40;99.90;;;;;;5038972;28;20044;-88
2022/03/01 04:40:41;;;;;;;18.27;9.75;;;1.40;99.90;;;;;;5038380;28;20053;-88
2022/03/01 04:43:06;;;;;;;27.35;9.95;;;1.50;99.90;;;;;;5038104;28;20046;-88
2022/03/01 04:45:32;;;;;;;25.23;10.38;;;1.60;99.90;;;;;;5037037;28;20076;-88
2022/03/01 04:47:58;;;;;;;20.30;9.85;;;1.50;99.90;;;;;;5039351;28;20037;-88
2022/03/01 04:50:25;;;;;;;17.20;9.63;;;1.70;99.90;;;;;;5036911;28;20503;-88
2022/03/01 04:52:50;;;;;;;17.23;9.50;;;1.60;99.90;;;;;;5039032;28;20042;-88
2022/03/01 04:55:16;;;;;;;19.45;9.00;;;1.60;99.90;;;;;;5038556;28;20037;-88
2022/03/01 04:57:43;;;;;;;19.80;10.32;;;1.60;99.90;;;;;;5038498;28;20045;-88
2022/03/01 05:00:10;;;;;;;19.23;9.95;;;1.70;99.90;;;;;;5036871;28;20495;-87
2022/03/01 05:02:40;;;;;;;18.25;10.38;;;1.70;99.90;;;;;;5037686;28;20096;-88
2022/03/01 05:05:10;;;;;;;19.73;9.75;;;1.60;99.90;;;;;;5038048;28;20045;-88
2022/03/01 05:07:39;;;;;;;18.67;9.57;;;1.60;99.90;;;;;;5037800;28;20038;-88
2022/03/01 05:10:07;;;;;;;18.40;10.60;;;1.60;99.90;;;;;;5037852;28;20041;-89
2022/03/01 05:12:32;;;;;;;19.63;9.68;;;1.60;99.90;;;;;;5037979;28;20037;-87
2022/03/01 05:14:58;;;;;;;18.35;10.05;;;1.80;99.90;;;;;;5036761;28;20511;-88
2022/03/01 05:17:23;;;;;;;19.45;9.77;;;1.70;99.90;;;;;;5037061;28;20045;-88
2022/03/01 05:19:49;;;;;;;20.05;9.90;;;1.80;99.90;;;;;;5036344;28;20486;-88
2022/03/01 05:22:14;;;;;;;23.15;10.40;;;1.80;99.90;;;;;;5037195;28;20053;-88
2022/03/01 05:24:40;;;;;;;16.77;9.10;;;1.80;99.90;;;;;;5037971;28;20042;-88
2022/03/01 05:27:06;;;;;;;19.52;10.57;;;1.80;99.90;;;;;;5037255;28;20052;-88
2022/03/01 05:29:31;;;;;;;17.83;9.38;;;1.90;99.90;;;;;;5037214;28;20041;-88
2022/03/01 05:31:57;;;;;;;21.08;11.15;;;1.80;99.90;;;;;;5039137;28;20041;-88
2022/03/01 05:34:22;;;;;;;17.95;9.32;;;2.00;99.90;;;;;;5037769;28;20116;-88
2022/03/01 05:36:48;;;;;;;19.73;9.80;;;1.90;99.90;;;;;;5019952;28;20060;-88
2022/03/01 05:39:13;;;;;;;23.08;10.65;;;2.00;99.90;;;;;;5038147;28;20183;-88
2022/03/01 05:41:39;;;;;;;16.35;9.18;;;2.00;99.90;;;;;;5036372;28;20057;-88
2022/03/01 05:44:05;;;;;;;17.58;9.70;;;2.00;99.90;;;;;;5033193;28;20045;-88
2022/03/01 05:46:31;;;;;;;20.85;10.52;;;2.00;99.90;;;;;;5033972;28;20037;-88
2022/03/01 05:48:56;;;;;;;21.05;10.32;;;2.00;99.90;;;;;;5033525;28;20053;-88
2022/03/01 05:51:22;;;;;;;20.35;10.40;;;2.00;99.90;;;;;;5032388;28;20473;-88
2022/03/01 05:53:49;;;;;;;18.45;9.93;;;2.00;99.90;;;;;;5033746;28;20084;-87
2022/03/01 05:56:15;;;;;;;21.30;10.75;;;1.90;99.90;;;;;;5032047;28;20069;-88
2022/03/01 05:58:40;;;;;;;17.13;9.48;;;1.90;99.90;;;;;;5033266;28;20049;-88
2022/03/01 06:01:06;;;;;;;21.38;10.90;;;1.80;99.90;;;;;;5033723;28;20045;-88
2022/03/01 06:03:31;;;;;;;16.35;9.50;;;1.70;99.90;;;;;;5033675;28;20056;-88
2022/03/01 06:05:57;;;;;;;22.70;11.40;;;1.60;99.90;;;;;;5035183;28;20050;-88
2022/03/01 06:08:23;;;;;;;22.33;10.45;;;1.60;99.90;;;;;;5034846;28;20101;-88
2022/03/01 06:10:49;;;;;;;21.02;10.20;;;1.50;99.90;;;;;;5035019;28;20098;-88
2022/03/01 06:13:14;;;;;;;19.98;9.98;;;1.50;99.90;;;;;;5035629;28;20081;-87
2022/03/01 06:15:40;;;;;;;19.17;10.15;;;1.40;99.90;;;;;;5039536;28;20056;-88
2022/03/01 06:18:05;;;;;;;18.52;9.75;;;1.40;99.90;;;;;;5040730;28;20435;-88
2022/03/01 06:20:31;;;;;;;20.67;10.93;;;1.40;99.90;;;;;;5041767;28;20091;-87
2022/03/01 06:22:57;;;;;;;18.48;10.10;;;1.40;99.90;;;;;;5042856;28;20052;-88
2022/03/01 06:25:23;;;;;;;20.48;11.07;;;1.50;99.90;;;;;;5043273;28;20110;-87
2022/03/01 06:27:50;;;;;;;19.05;9.88;;;1.50;99.90;;;;;;5047216;28;20076;-88
2022/03/01 06:30:16;;;;;;;18.95;10.13;;;1.60;99.90;;;;;;5042240;28;20053;-88
2022/03/01 06:32:41;;;;;;;22.27;11.90;;;2.30;99.90;;;;;;5041153;28;20037;-88
2022/03/01 06:35:07;;;;;;;18.77;10.07;;;1.70;99.90;;;;;;5037943;28;20508;-89
2022/03/01 06:37:33;;;;;;;20.02;8.27;;;1.80;99.90;;;;;;5035909;28;20132;-88
2022/03/01 06:39:58;;;;;;;19.27;10.55;;;1.80;99.90;;;;;;5035447;28;20081;-88
2022/03/01 06:42:24;;;;;;;19.80;10.60;;;1.90;99.90;;;;;;5035451;28;20045;-88
2022/03/01 06:44:50;;;;;;;18.60;9.68;;;2.00;99.90;;;;;;5035253;28;20121;-88
2022/03/01 06:47:16;;;;;;;21.55;10.88;;;2.00;99.90;;;;;;5035548;28;20064;-86
2022/03/01 06:49:41;;;;;;;20.50;11.38;;;2.00;99.90;;;;;;5035301;28;20038;-86
2022/03/01 06:52:07;;;;;;;18.85;10.02;;;2.60;99.90;;;;;;5034837;28;20044;-87
2022/03/01 06:54:33;;;;;;;19.95;10.05;;;2.00;99.90;;;;;;5033882;28;20450;-87
2022/03/01 06:56:58;;;;;;;18.90;10.77;;;2.10;99.90;;;;;;5035116;28;20043;-87
2022/03/01 06:59:26;;;;;;;15.85;9.55;;;2.40;99.90;;;;;;5034843;28;20041;-87
2022/03/01 07:01:52;;;;;;;21.02;11.98;;;2.10;99.90;;;;;;5034803;28;20475;-87
2022/03/01 07:04:17;;;;;;;18.05;10.25;;;2.70;99.90;;;;;;5035471;28;20048;-86
2022/03/01 07:06:43;;;;;;;20.30;10.77;;;2.20;99.90;;;;;;5033865;28;20045;-87
2022/03/01 07:09:09;;;;;;;18.90;9.98;;;2.30;99.90;;;;;;5036252;28;20053;-86
2022/03/01 07:11:35;;;;;;;18.20;10.38;;;2.40;99.90;;;;;;5033903;28;20065;-87
2022/03/01 07:14:03;;;;;;;19.38;10.85;;;2.50;99.90;;;;;;5033793;28;20046;-87
2022/03/01 07:16:28;;;;;;;19.58;10.52;;;2.60;99.90;;;;;;5035525;28;20076;-87
2022/03/01 07:18:54;;;;;;;21.88;10.80;;;2.70;99.90;;;;;;5036570;28;20048;-87
2022/03/01 07:21:21;;;;;;;21.88;11.30;;;2.80;99.90;;;;;;5034192;28;20447;-86
2022/03/01 07:23:46;;;;;;;21.92;11.52;;;2.90;99.90;;;;;;5033997;28;20041;-87
2022/03/01 07:26:12;;;;;;;18.15;9.45;;;3.00;99.90;;;;;;5034940;28;20049;-86
2022/03/01 07:28:37;;;;;;;21.85;11.05;;;3.20;99.90;;;;;;5033230;28;20049;-86
2022/03/01 07:31:03;;;;;;;20.80;10.57;;;3.30;99.90;;;;;;5031576;28;20045;-86
2022/03/01 07:33:29;;;;;;;19.90;9.93;;;3.40;99.90;;;;;;5032830;28;20088;-86
2022/03/01 07:35:54;;;;;;;18.27;10.05;;;4.30;99.90;;;;;;5030474;28;20115;-86
2022/03/01 07:38:20;;;;;;;23.10;12.18;;;4.20;99.90;;;;;;5031175;28;20045;-86
2022/03/01 07:40:45;;;;;;;23.55;9.45;;;3.90;99.90;;;;;;5030617;28;20416;-86
2022/03/01 07:43:11;;;;;;;22.08;11.63;;;4.10;99.90;;;;;;5033476;28;20053;-86
2022/03/01 07:45:37;;;;;;;19.25;11.38;;;4.40;99.90;;;;;;5032047;28;20048;-86
2022/03/01 07:48:03;;;;;;;20.42;11.48;;;4.00;99.90;;;;;;5033280;28;20033;-86
2022/03/01 07:50:30;;;;;;;20.73;10.65;;;4.10;99.90;;;;;;5032361;28;20045;-86
2022/03/01 07:52:56;;;;;;;19.17;10.05;;;4.20;99.90;;;;;;5033430;28;20041;-86
2022/03/01 07:55:22;;;;;;;22.27;11.25;;;4.30;99.90;;;;;;5032992;28;20115;-87
2022/03/01 07:57:48;;;;;;;19.27;11.15;;;4.30;99.90;;;;;;5032683;28;20085;-86
2022/03/01 08:00:14;;;;;;;19.63;11.45;;;4.30;99.90;;;;;;5033249;28;20064;-86
2022/03/01 08:02:41;;;;;;;24.27;12.13;;;4.30;99.90;;;;;;5035609;28;20049;-86
2022/03/01 08:05:08;;;;;;;22.13;11.73;;;4.30;99.90;;;;;;5016855;28;20053;-86
2022/03/01 08:07:34;;;;;;;19.50;10.48;;;4.40;99.90;;;;;;5027436;28;20037;-86
2022/03/01 08:10:00;;;;;;;22.42;12.00;;;4.40;99.90;;;;;;5034400;28;20553;-86
2022/03/01 08:12:26;;;;;;;22.48;12.38;;;4.50;99.90;;;;;;5035095;28;20045;-86
2022/03/01 08:14:51;;;;;;;23.73;11.95;;;4.50;99.90;;;;;;5035809;28;20041;-86
2022/03/01 08:17:17;;;;;;;17.70;10.50;;;4.60;99.90;;;;;;5038521;28;20038;-86
2022/03/01 08:19:43;;;;;;;23.95;9.98;;;4.70;99.90;;;;;;5040376;28;20096;-86
2022/03/01 08:22:09;;;;;;;21.55;11.10;;;4.70;99.90;;;;;;5039647;28;20346;-86
2022/03/01 08:24:35;;;;;;;23.75;11.93;;;4.80;99.90;;;;;;5038427;28;20312;-86
2022/03/01 08:27:00;;;;;;;22.17;11.25;;;4.80;99.90;;;;;;5055958;28;20091;-85
2022/03/01 08:29:29;;;;;;;20.17;11.50;;;4.90;99.90;;;;;;5039648;28;20049;-86
2022/03/01 08:31:55;;;;;;;21.42;11.70;;;5.20;99.90;;;;;;5055976;28;20048;-86
2022/03/01 08:34:20;;;;;;;19.13;11.20;;;5.10;99.90;;;;;;5037051;28;20061;-86
2022/03/01 08:36:46;;;;;;;17.92;10.13;;;5.10;99.90;;;;;;5039381;28;20053;-86
2022/03/01 08:39:11;;;;;;;23.70;10.88;;;5.10;99.90;;;;;;5038357;28;20045;-86
2022/03/01 08:41:37;;;;;;;32.05;12.68;;;5.20;99.90;;;;;;5039061;28;20049;-86
2022/03/01 08:44:03;;;;;;;22.15;10.90;;;5.30;99.90;;;;;;5041583;28;20038;-86
2022/03/01 08:46:29;;;;;;;21.92;11.35;;;5.40;99.90;;;;;;5040967;28;20096;-87
2022/03/01 08:48:55;;;;;;;19.98;11.15;;;5.50;99.90;;;;;;5040238;28;20450;-86
2022/03/01 08:51:21;;;;;;;18.55;10.55;;;5.50;99.90;;;;;;5025756;28;20050;-87
2022/03/01 08:53:48;;;;;;;25.17;10.50;;;5.70;99.20;;;;;;5042522;28;20056;-86
2022/03/01 08:56:17;;;;;;;18.52;10.30;;;5.80;97.90;;;;;;5066398;28;20057;-86
2022/03/01 08:58:44;;;;;;;19.10;11.23;;;5.90;97.80;;;;;;5038269;28;20042;-88
2022/03/01 09:01:09;;;;;;;19.35;11.02;;;6.00;97.30;;;;;;5041560;28;20107;-86
2022/03/01 09:03:36;;;;;;;21.08;11.02;;;6.10;95.30;;;;;;5046453;28;20385;-87
2022/03/01 09:06:04;;;;;;;20.48;10.98;;;6.10;95.60;;;;;;5042340;28;20109;-86
2022/03/01 09:08:30;;;;;;;20.40;9.63;;;6.20;95.70;;;;;;5043163;28;20053;-87
2022/03/01 09:10:56;;;;;;;20.70;10.52;;;6.20;95.80;;;;;;5045566;28;20510;-86
2022/03/01 09:13:22;;;;;;;19.02;10.35;;;6.30;95.70;;;;;;5048255;28;20076;-86
2022/03/01 09:15:47;;;;;;;17.08;9.30;;;6.40;94.40;;;;;;5031001;28;20049;-86
2022/03/01 09:18:13;;;;;;;20.63;11.15;;;6.50;94.00;;;;;;5046031;28;20099;-87
2022/03/01 09:20:38;;;;;;;23.25;11.15;;;6.60;94.00;;;;;;5047228;28;20042;-86
2022/03/01 09:23:04;;;;;;;18.67;10.50;;;6.80;92.80;;;;;;5044347;28;20060;-86
2022/03/01 09:25:29;;;;;;;20.48;11.52;;;7.00;92.60;;;;;;5045931;28;20050;-86
2022/03/01 09:27:55;;;;;;;19.48;10.20;;;7.20;91.40;;;;;;5047821;28;20120;-86
2022/03/01 09:30:21;;;;;;;23.58;11.75;;;7.40;90.30;;;;;;5047978;28;20495;-86
2022/03/01 09:32:47;;;;;;;19.73;10.70;;;7.50;90.30;;;;;;5046197;28;20060;-86
2022/03/01 09:35:13;;;;;;;20.58;10.82;;;7.70;87.80;;;;;;5043971;28;20033;-86
2022/03/01 09:37:39;;;;;;;17.05;10.30;;;7.80;88.40;;;;;;5045152;28;20058;-85
2022/03/01 09:40:06;;;;;;;20.60;11.00;;;7.90;87.40;;;;;;5046176;28;20041;-85
2022/03/01 09:42:32;;;;;;;17.33;10.65;;;8.00;86.00;;;;;;5033874;28;20111;-85
2022/03/01 09:44:59;;;;;;;16.83;10.55;;;8.10;85.90;;;;;;5052044;28;20060;-85
2022/03/01 09:47:26;;;;;;;15.77;9.18;;;8.20;83.80;;;;;;5054108;28;20075;-85
2022/03/01 09:49:51;;;;;;;17.65;9.85;;;8.40;78.90;;;;;;5054788;28;20060;-84
2022/03/01 09:52:18;;;;;;;17.25;10.48;;;8.40;77.70;;;;;;5053780;28;20037;-85
2022/03/01 09:54:44;;;;;;;15.45;9.13;;;8.30;77.70;;;;;;5051120;28;20041;-85
2022/03/01 09:57:14;;;;;;;20.55;11.30;;;8.20;79.00;;;;;;5050228;28;20046;-85
2022/03/01 09:59:39;;;;;;;21.45;10.52;;;8.20;80.10;;;;;;5050150;28;20047;-85
2022/03/01 10:02:05;;;;;;;18.05;10.75;;;8.20;79.30;;;;;;5049022;28;20065;-86
2022/03/01 10:04:30;;;;;;;18.23;10.93;;;8.10;78.00;;;;;;5047433;28;20107;-85
2022/03/01 10:06:56;;;;;;;21.17;9.55;;;8.00;79.70;;;;;;5051064;28;20135;-85
2022/03/01 10:09:24;;;;;;;16.83;10.13;;;8.10;77.70;;;;;;5048273;28;20072;-86
2022/03/01 10:11:50;;;;;;;18.15;11.38;;;8.00;77.50;;;;;;5049258;28;20075;-85
2022/03/01 10:14:27;;;;;;;18.85;11.30;;;8.00;79.40;;;;;;5080897;28;20034;-85
2022/03/01 10:16:53;;;;;;;17.60;10.00;;;8.10;81.60;;;;;;5049009;28;20192;-86
2022/03/01 10:19:20;;;;;;;20.35;10.70;;;8.20;81.00;;;;;;5048277;28;20029;-86
2022/03/01 10:22:04;;;;;;;21.23;11.20;;;8.30;80.80;;;;;;5082219;28;20050;-85
2022/03/01 10:24:31;;;;;;;17.00;9.80;;;8.30;77.90;;;;;;5083808;28;20037;-86
2022/03/01 10:26:58;;;;;;;20.25;11.50;;;8.30;76.70;;;;;;5046939;28;20049;-85
2022/03/01 10:29:29;;;;;;;16.35;9.50;;;8.30;78.10;;;;;;5049299;28;20128;-85
2022/03/01 10:32:09;;;;;;;19.98;10.77;;;8.30;78.90;;;;;;5051408;28;20041;-85
2022/03/01 10:34:34;;;;;;;17.42;9.82;;;8.30;79.40;;;;;;5051501;28;20077;-85
2022/03/01 10:37:00;;;;;;;20.52;10.32;;;8.40;80.00;;;;;;5051705;28;20061;-85
2022/03/01 10:39:27;;;;;;;18.65;10.27;;;8.40;81.00;;;;;;5053214;28;20106;-85
2022/03/01 10:41:53;;;;;;;16.63;10.10;;;8.70;80.60;;;;;;5053804;28;20042;-85
2022/03/01 10:44:25;;;;;;;15.40;10.25;;;9.00;79.60;;;;;;5052576;28;20040;-85
2022/03/01 10:46:54;;;;;;;17.88;10.07;;;9.40;76.90;;;;;;5086163;28;20025;-86
2022/03/01 10:49:29;;;;;;;15.63;9.77;;;9.90;73.50;;;;;;5053711;28;20064;-86
2022/03/01 10:52:02;;;;;;;16.35;10.48;;;10.30;70.80;;;;;;5049671;28;20045;-86
2022/03/01 10:54:33;;;;;;;17.40;10.05;;;10.50;69.60;;;;;;5049935;28;20041;-86
2022/03/01 10:57:01;;;;;;;17.98;10.43;;;10.80;67.90;;;;;;5049879;28;20057;-86
2022/03/01 10:59:29;;;;;;;19.90;11.70;;;10.90;66.20;;;;;;5085434;28;20072;-86
2022/03/01 11:01:56;;;;;;;16.38;10.52;;;11.00;63.60;;;;;;5052664;28;20041;-86
2022/03/01 11:04:24;;;;;;;17.70;10.98;;;11.00;64.80;;;;;;5053772;28;20067;-86
2022/03/01 11:06:51;;;;;;;18.40;10.85;;;11.20;63.10;;;;;;5053813;28;20029;-86
2022/03/01 11:09:17;;;;;;;18.05;10.48;;;11.30;62.30;;;;;;5052615;28;20032;-86
2022/03/01 11:11:45;;;;;;;16.05;10.35;;;11.50;63.20;;;;;;5052685;28;20083;-87
2022/03/01 11:14:15;;;;;;;19.83;11.40;;;11.70;62.40;;;;;;5086110;28;20097;-86
2022/03/01 11:17:01;;;;;;;16.73;10.77;;;11.90;59.70;;;;;;5084890;28;20053;-87
2022/03/01 11:19:46;;;;;;;17.92;11.98;;;11.90;60.70;;;;;;5052061;28;20038;-86
2022/03/01 11:22:40;;;;;;;17.90;10.70;;;12.00;58.90;;;;;;5050069;28;20053;-86
2022/03/01 11:25:06;;;;;;;18.40;11.77;;;11.90;59.30;;;;;;5048190;28;20041;-87
2022/03/01 11:27:46;;;;;;;18.25;10.60;;;12.00;58.80;;;;;;5075565;28;20210;-87
2022/03/01 11:30:13;;;;;;;20.40;12.75;;;12.00;57.70;;;;;;5043734;28;20353;-87
2022/03/01 11:32:42;;;;;;;17.95;11.10;;;12.00;56.00;;;;;;5041267;28;20407;-87
2022/03/01 11:35:19;;;;;;;17.70;11.02;;;12.00;56.80;;;;;;5043423;28;20056;-86
2022/03/01 11:37:57;;;;;;;20.45;11.38;;;12.00;56.90;;;;;;5043805;28;20053;-87
2022/03/01 11:40:24;;;;;;;19.40;11.57;;;12.20;57.30;;;;;;5044252;28;20041;-87
2022/03/01 11:42:50;;;;;;;20.30;12.35;;;12.00;56.60;;;;;;5043630;28;20045;-86
2022/03/01 11:45:17;;;;;;;17.67;10.70;;;11.90;57.10;;;;;;5042335;28;20042;-86
2022/03/01 11:47:43;;;;;;;18.13;11.32;;;12.00;57.60;;;;;;5058999;28;20053;-87
2022/03/01 11:50:15;;;;;;;18.17;10.63;;;12.00;56.90;;;;;;5080547;28;20040;-86
2022/03/01 11:53:04;;;;;;;22.58;12.02;;;11.90;58.20;;;;;;5050060;28;20045;-86
2022/03/01 11:55:51;;;;;;;25.40;12.07;;;12.00;57.10;;;;;;5046578;28;20068;-86
2022/03/01 11:58:18;;;;;;;18.83;12.02;;;11.80;56.10;;;;;;5046713;28;20051;-86
2022/03/01 12:00:44;;;;;;;20.83;11.05;;;11.70;56.90;;;;;;5081420;28;20049;-87
2022/03/01 12:03:12;;;;;;;16.77;10.10;;;11.70;56.40;;;;;;5047895;28;20518;-87
2022/03/01 12:05:38;;;;;;;17.60;11.18;;;11.80;56.40;;;;;;5080890;28;20052;-87
2022/03/01 12:08:11;;;;;;;18.95;11.73;;;11.80;55.80;;;;;;5047425;28;20054;-87
2022/03/01 12:10:38;;;;;;;19.88;11.75;;;11.90;57.40;;;;;;5047319;28;20140;-88
2022/03/01 12:13:06;;;;;;;20.73;11.63;;;12.00;55.30;;;;;;5044206;28;20455;-87
2022/03/01 12:15:40;;;;;;;20.90;11.93;;;12.00;55.50;;;;;;5077817;28;20049;-87
2022/03/01 12:18:16;;;;;;;20.02;12.93;;;12.00;55.40;;;;;;5044476;28;20046;-87
2022/03/01 12:20:44;;;;;;;19.35;11.93;;;11.90;54.80;;;;;;5078137;28;20046;-87
2022/03/01 12:23:23;;;;;;;18.67;10.73;;;11.80;55.40;;;;;;5077627;28;20057;-88
2022/03/01 12:25:48;;;;;;;98.55;18.55;;;11.70;55.70;;;;;;5077553;28;20399;-87
2022/03/01 12:28:16;;;;;;;33.47;13.55;;;11.70;56.20;;;;;;5052398;28;20052;-87
2022/03/01 12:30:43;;;;;;;22.27;11.35;;;11.60;55.60;;;;;;5056399;28;20060;-87
2022/03/01 12:33:18;;;;;;;17.15;10.73;;;11.60;56.60;;;;;;5089847;28;20072;-87
2022/03/01 12:35:55;;;;;;;21.20;11.80;;;11.70;56.10;;;;;;5089963;28;20034;-87
2022/03/01 12:38:21;;;;;;;18.73;11.10;;;11.70;56.80;;;;;;5057229;28;20056;-87